Time;durP1;ratioP1;P1;durP2;ratioP2;P2;SDS_P1;SDS_P2;PMS_P1;PMS_P2;Temp;Humidity;BMP_temperature;BMP_pressure;BME280_temperature;BME280_humidity;BME280_pressure;Samples;Min_cycle;Max_cycle;Signal;HPM_P1;HPM_P2
2020/12/18 05:47:58;;;;;;;3.58;1.25;;;;;;;;;;6274879;22;20107;-76
2020/12/18 05:50:28;;;;;;;8.35;2.97;;;;;;;;;;6274689;22;20319;-76
2020/12/18 05:53:14;;;;;;;4.65;1.65;;;;;;;;;;6274671;22;20383;-76
2020/12/18 05:55:41;;;;;;;7.45;2.80;;;;;;;;;;6273767;22;20008;-76
2020/12/18 05:58:14;;;;;;;6.15;3.10;;;;;;;;;;6274586;22;20003;-76
2020/12/18 06:03:09;;;;;;;4.68;2.55;;;;;;;;;;6310538;22;20099;-79
2020/12/18 06:05:37;;;;;;;7.40;2.72;;;;;;;;;;6281915;22;20091;-78
2020/12/18 06:08:07;;;;;;;5.22;2.60;;;;;;;;;;6309754;22;20070;-80
2020/12/18 06:10:33;;;;;;;5.85;2.05;;;;;;;;;;6304000;22;20004;-78
2020/12/18 06:13:03;;;;;;;3.95;2.08;;;;;;;;;;6251240;22;20000;-81
2020/12/18 06:15:29;;;;;;;4.10;2.50;;;;;;;;;;6277568;22;20079;-77
2020/12/18 06:17:55;;;;;;;8.77;2.17;;;;;;;;;;6249848;22;20380;-79
2020/12/18 06:20:21;;;;;;;3.58;1.85;;;;;;;;;;6250235;22;20015;-78
2020/12/18 06:23:00;;;;;;;8.25;1.95;;;;;;;;;;6279356;22;19999;-79
2020/12/18 06:25:26;;;;;;;5.15;1.70;;;;;;;;;;6278263;22;20322;-79
2020/12/18 06:28:03;;;;;;;5.00;1.73;;;;;;;;;;6278280;22;20015;-79
2020/12/18 06:30:29;;;;;;;7.30;1.55;;;;;;;;;;6278779;22;20010;-80
2020/12/18 06:32:55;;;;;;;5.15;1.50;;;;;;;;;;6279124;22;19996;-77
2020/12/18 06:35:30;;;;;;;11.75;1.65;;;;;;;;;;6277970;22;20011;-79
2020/12/18 06:40:31;;;;;;;8.10;2.10;;;;;;;;;;5074249;28;20407;-77
2020/12/18 06:42:58;;;;;;;2.95;1.67;;;;;;;;;;5071866;28;20415;-78
2020/12/18 06:45:24;;;;;;;10.23;1.92;;;;;;;;;;5079724;28;20025;-79
2020/12/18 06:47:50;;;;;;;11.38;1.88;;;;;;;;;;5076734;28;20032;-79
2020/12/18 06:50:16;;;;;;;5.03;1.48;;;;;;;;;;5081321;28;20029;-78
2020/12/18 06:52:44;;;;;;;5.50;2.20;;;;;;;;;;5084059;28;20056;-78
2020/12/18 06:55:14;;;;;;;13.55;2.15;;;;;;;;;;5062111;28;20103;-78
2020/12/18 06:57:40;;;;;;;5.53;2.03;;;;;;;;;;5085973;28;20021;-78
2020/12/18 07:00:21;;;;;;;4.43;2.38;;;;;;;;;;5080387;28;20503;-78
2020/12/18 07:02:47;;;;;;;6.93;2.20;;;;;;;;;;5074581;28;20020;-77
2020/12/18 07:05:30;;;;;;;13.55;2.47;;;;;;;;;;5079555;28;20059;-78
2020/12/18 07:07:58;;;;;;;15.48;2.95;;;;;;;;;;5078907;28;20456;-79
2020/12/18 07:10:27;;;;;;;20.38;3.97;;;;;;;;;;5072616;28;20066;-76
2020/12/18 07:12:56;;;;;;;7.93;2.95;;;;;;;;;;5052393;28;20021;-77
2020/12/18 07:15:22;;;;;;;7.60;2.72;;;;;;;;;;5069628;28;20029;-75
2020/12/18 07:17:49;;;;;;;4.55;2.17;;;;;;;;;;5065963;28;20449;-77
2020/12/18 07:20:15;;;;;;;4.18;2.40;;;;;;;;;;5062968;28;20025;-77
2020/12/18 07:22:42;;;;;;;9.15;2.60;;;;;;;;;;5076456;28;20476;-77
2020/12/18 07:25:12;;;;;;;9.95;2.38;;;;;;;;;;5074349;28;20040;-77
2020/12/18 07:27:38;;;;;;;8.32;2.17;;;;;;;;;;5074057;28;20051;-77
2020/12/18 07:30:09;;;;;;;13.10;3.80;;;;;;;;;;5066577;28;20477;-77
2020/12/18 07:32:35;;;;;;;6.78;2.50;;;;;;;;;;5057763;28;20434;-77
2020/12/18 07:35:07;;;;;;;17.85;4.03;;;;;;;;;;5061526;28;20028;-76
2020/12/18 07:37:37;;;;;;;10.40;3.65;;;;;;;;;;5069312;28;20035;-77
2020/12/18 07:40:06;;;;;;;8.93;4.95;;;;;;;;;;5072415;28;20031;-78
2020/12/18 07:42:33;;;;;;;4.82;3.05;;;;;;;;;;5068293;28;20027;-77
2020/12/18 07:45:08;;;;;;;5.47;3.10;;;;;;;;;;5069651;28;20752;-77
2020/12/18 07:47:38;;;;;;;15.50;3.60;;;;;;;;;;5070201;28;20021;-77
2020/12/18 07:50:05;;;;;;;4.47;2.35;;;;;;;;;;5062997;28;20051;-77
2020/12/18 07:52:33;;;;;;;8.82;1.90;;;;;;;;;;5055477;28;20031;-77
2020/12/18 07:54:59;;;;;;;10.10;1.60;;;;;;;;;;5050552;28;20132;-77
2020/12/18 07:57:25;;;;;;;10.73;1.50;;;;;;;;;;5058287;28;20523;-77
2020/12/18 07:59:51;;;;;;;13.48;2.00;;;;;;;;;;5051262;28;20095;-78
2020/12/18 08:02:24;;;;;;;5.50;3.22;;;;;;;;;;5062260;28;20472;-78
2020/12/18 08:04:56;;;;;;;12.65;2.92;;;;;;;;;;5061282;28;20496;-78
2020/12/18 08:07:22;;;;;;;45.15;4.28;;;;;;;;;;5043223;28;20128;-77
2020/12/18 08:10:08;;;;;;;6.70;2.80;;;;;;;;;;5064832;28;20064;-78
2020/12/18 08:12:34;;;;;;;5.88;2.42;;;;;;;;;;5052182;28;20060;-77
2020/12/18 08:15:10;;;;;;;34.65;5.05;;;;;;;;;;5059413;28;20051;-77
2020/12/18 08:17:37;;;;;;;7.30;4.28;;;;;;;;;;5046154;28;20029;-77
2020/12/18 08:20:04;;;;;;;10.30;4.45;;;;;;;;;;5042412;28;20492;-77
2020/12/18 08:22:33;;;;;;;20.70;5.68;;;;;;;;;;5039268;28;20024;-76
2020/12/18 08:25:00;;;;;;;8.77;3.40;;;;;;;;;;5057029;28;20017;-78
2020/12/18 08:27:28;;;;;;;3.63;2.30;;;;;;;;;;5038423;28;20025;-77
2020/12/18 08:29:54;;;;;;;4.95;3.10;;;;;;;;;;5056117;28;20025;-76
2020/12/18 08:32:23;;;;;;;7.88;4.40;;;;;;;;;;5055318;28;20059;-79
2020/12/18 08:34:50;;;;;;;5.22;3.72;;;;;;;;;;5045172;28;20654;-79
2020/12/18 08:37:22;;;;;;;7.20;3.10;;;;;;;;;;5066275;28;20102;-77
2020/12/18 08:42:06;;;;;;;2.67;1.50;;;;;;;;;;5069068;28;20350;-79
2020/12/18 08:44:40;;;;;;;5.22;1.83;;;;;;;;;;5062499;28;20162;-78
2020/12/18 08:47:26;;;;;;;2.55;1.33;;;;;;;;;;5057095;28;20428;-80
2020/12/18 08:49:53;;;;;;;7.45;1.67;;;;;;;;;;5057426;28;20028;-80
2020/12/18 08:52:24;;;;;;;4.28;1.80;;;;;;;;;;5055604;28;20029;-79
2020/12/18 08:54:59;;;;;;;8.98;3.25;;;;;;;;;;5059039;28;20037;-78
2020/12/18 08:57:26;;;;;;;6.60;3.42;;;;;;;;;;5061083;28;20104;-79
2020/12/18 09:00:11;;;;;;;5.70;3.15;;;;;;;;;;5057120;28;20025;-79
2020/12/18 09:02:39;;;;;;;9.93;4.95;;;;;;;;;;5057418;28;20016;-80
2020/12/18 09:05:23;;;;;;;14.65;5.10;;;;;;;;;;5052013;28;20039;-80
2020/12/18 09:07:53;;;;;;;6.63;4.20;;;;;;;;;;5056949;28;20274;-79
2020/12/18 09:10:26;;;;;;;17.40;5.78;;;;;;;;;;5080117;28;20046;-78
2020/12/18 09:12:52;;;;;;;12.23;3.78;;;;;;;;;;5061023;28;20093;-80
2020/12/18 09:15:19;;;;;;;4.22;2.47;;;;;;;;;;5065109;28;20100;-79
2020/12/18 09:17:45;;;;;;;2.90;1.63;;;;;;;;;;5064204;28;20371;-79
2020/12/18 09:20:23;;;;;;;10.98;2.40;;;;;;;;;;5062783;28;20033;-81
2020/12/18 09:23:00;;;;;;;3.70;1.75;;;;;;;;;;5061774;28;20059;-81
2020/12/18 09:25:26;;;;;;;3.65;2.08;;;;;;;;;;5064102;28;20032;-81
2020/12/18 09:27:52;;;;;;;5.28;3.20;;;;;;;;;;5066421;28;20363;-81
2020/12/18 09:30:29;;;;;;;5.43;3.05;;;;;;;;;;5062083;28;20033;-79
2020/12/18 09:33:14;;;;;;;10.75;4.85;;;;;;;;;;5060193;28;20031;-80
2020/12/18 09:35:40;;;;;;;11.23;5.85;;;;;;;;;;5067415;28;20400;-80
2020/12/18 09:38:06;;;;;;;9.30;5.57;;;;;;;;;;5057108;28;20033;-80
2020/12/18 09:40:32;;;;;;;13.95;6.20;;;;;;;;;;5054810;28;20032;-80
2020/12/18 09:42:58;;;;;;;10.43;5.55;;;;;;;;;;5056806;28;20049;-78
2020/12/18 09:45:24;;;;;;;13.60;5.10;;;;;;;;;;5056541;28;20429;-79
2020/12/18 09:50:09;;;;;;;12.77;4.90;;;;;;;;;;5107723;27;20359;-80
2020/12/18 09:52:35;;;;;;;8.00;4.68;;;;;;;;;;5085121;28;20078;-80
2020/12/18 09:55:00;;;;;;;8.02;4.20;;;;;;;;;;5082537;28;20025;-78
2020/12/18 09:57:26;;;;;;;8.82;4.75;;;;;;;;;;5078643;28;20032;-81
2020/12/18 09:59:52;;;;;;;11.57;5.55;;;;;;;;;;5085906;28;20028;-79
2020/12/18 10:02:18;;;;;;;8.88;4.88;;;;;;;;;;5082173;28;20024;-79
2020/12/18 10:04:44;;;;;;;12.90;5.72;;;;;;;;;;5084163;28;20473;-80
2020/12/18 10:07:10;;;;;;;8.90;5.32;;;;;;;;;;5082993;28;20033;-79
2020/12/18 10:09:36;;;;;;;19.02;6.32;;;;;;;;;;5083325;28;20031;-79
2020/12/18 10:12:02;;;;;;;22.85;5.70;;;;;;;;;;5075560;28;20031;-79
2020/12/18 10:14:28;;;;;;;19.08;5.35;;;;;;;;;;5084933;28;20472;-79
2020/12/18 10:16:54;;;;;;;12.20;5.13;;;;;;;;;;5085434;28;20020;-79
2020/12/18 10:19:20;;;;;;;8.35;4.53;;;;;;;;;;5086625;28;20024;-80
2020/12/18 10:21:46;;;;;;;16.05;6.45;;;;;;;;;;5089378;28;20487;-80
2020/12/18 10:24:12;;;;;;;12.63;5.53;;;;;;;;;;5091302;28;20036;-80
2020/12/18 10:26:38;;;;;;;10.55;3.58;;;;;;;;;;5083765;28;20025;-79
2020/12/18 10:29:04;;;;;;;8.57;3.60;;;;;;;;;;5082579;28;20067;-79
2020/12/18 10:31:29;;;;;;;8.77;3.40;;;;;;;;;;5086214;28;20044;-80
2020/12/18 10:33:55;;;;;;;16.70;4.50;;;;;;;;;;5083736;28;20028;-80
2020/12/18 10:36:21;;;;;;;7.75;4.25;;;;;;;;;;5089442;28;20072;-81
2020/12/18 10:38:47;;;;;;;10.60;5.10;;;;;;;;;;5087482;28;20032;-81
2020/12/18 10:41:13;;;;;;;13.07;6.85;;;;;;;;;;5092812;28;20036;-81
2020/12/18 10:43:39;;;;;;;15.80;7.00;;;;;;;;;;5091105;28;20026;-81
2020/12/18 10:46:05;;;;;;;11.48;6.90;;;;;;;;;;5086513;28;20025;-81
2020/12/18 10:48:33;;;;;;;12.60;7.13;;;;;;;;;;5088344;28;20028;-81
2020/12/18 10:51:00;;;;;;;9.63;5.65;;;;;;;;;;5090472;28;20054;-81
2020/12/18 10:53:26;;;;;;;9.65;6.07;;;;;;;;;;5086739;28;20123;-80
2020/12/18 10:55:52;;;;;;;11.32;6.25;;;;;;;;;;5085234;28;20500;-80
2020/12/18 10:58:18;;;;;;;11.43;7.40;;;;;;;;;;5089715;28;20570;-80
2020/12/18 11:00:44;;;;;;;13.15;8.05;;;;;;;;;;5082045;28;20020;-81
2020/12/18 11:03:10;;;;;;;26.58;9.75;;;;;;;;;;5075154;28;20046;-81
2020/12/18 11:05:36;;;;;;;12.25;7.32;;;;;;;;;;5082929;28;20024;-81
2020/12/18 11:08:02;;;;;;;14.93;7.10;;;;;;;;;;5076953;28;20415;-80
2020/12/18 11:10:28;;;;;;;13.20;7.57;;;;;;;;;;5084051;28;20021;-80
2020/12/18 11:12:54;;;;;;;13.07;7.93;;;;;;;;;;5070368;28;20099;-80
2020/12/18 11:15:20;;;;;;;10.52;6.47;;;;;;;;;;5081235;28;20100;-83
2020/12/18 11:17:46;;;;;;;10.90;6.20;;;;;;;;;;5072822;28;20037;-80
2020/12/18 11:20:12;;;;;;;8.13;4.88;;;;;;;;;;5075322;28;20024;-83
2020/12/18 11:22:38;;;;;;;8.77;5.38;;;;;;;;;;5078520;28;20020;-83
2020/12/18 11:25:04;;;;;;;7.32;4.45;;;;;;;;;;5068768;28;20021;-83
2020/12/18 11:27:31;;;;;;;14.20;7.97;;;;;;;;;;5071304;28;20021;-82
2020/12/18 11:29:57;;;;;;;14.95;8.45;;;;;;;;;;5075961;28;20955;-81
2020/12/18 11:32:23;;;;;;;17.48;6.25;;;;;;;;;;5078370;28;20028;-81
2020/12/18 11:34:48;;;;;;;17.23;6.47;;;;;;;;;;5074305;28;20028;-80
2020/12/18 11:37:15;;;;;;;11.48;5.47;;;;;;;;;;5071875;28;20028;-80
2020/12/18 11:39:41;;;;;;;10.23;5.40;;;;;;;;;;5072876;28;20044;-83
2020/12/18 11:42:07;;;;;;;12.93;6.90;;;;;;;;;;5080346;28;20032;-81
2020/12/18 11:44:33;;;;;;;12.70;7.05;;;;;;;;;;5079134;28;20024;-81
2020/12/18 11:46:59;;;;;;;15.07;8.15;;;;;;;;;;5080228;28;20036;-83
2020/12/18 11:49:25;;;;;;;13.40;8.10;;;;;;;;;;5085928;28;20032;-81
2020/12/18 11:51:50;;;;;;;12.35;7.55;;;;;;;;;;5089027;28;20028;-81
2020/12/18 11:54:16;;;;;;;8.60;5.03;;;;;;;;;;5081104;28;20020;-78
2020/12/18 11:56:47;;;;;;;9.73;5.85;;;;;;;;;;5075632;28;20028;-81
2020/12/18 11:59:13;;;;;;;7.53;5.32;;;;;;;;;;5072077;28;20056;-81
2020/12/18 12:01:39;;;;;;;9.52;6.13;;;;;;;;;;5094201;22;20500;-83
2020/12/18 12:04:05;;;;;;;10.88;6.45;;;;;;;;;;5061332;28;20027;-81
2020/12/18 12:06:31;;;;;;;10.48;6.18;;;;;;;;;;5067181;28;20527;-80
2020/12/18 12:09:03;;;;;;;10.73;6.90;;;;;;;;;;5060498;28;20477;-80
2020/12/18 12:11:35;;;;;;;9.57;6.03;;;;;;;;;;5066161;28;20021;-80
2020/12/18 12:14:01;;;;;;;12.98;7.50;;;;;;;;;;5080521;28;20032;-80
2020/12/18 12:16:31;;;;;;;10.05;6.50;;;;;;;;;;5085556;28;20069;-80
2020/12/18 12:18:57;;;;;;;11.35;7.20;;;;;;;;;;5083727;28;20024;-80
2020/12/18 12:21:23;;;;;;;16.85;9.23;;;;;;;;;;5083351;28;20032;-80
2020/12/18 12:23:49;;;;;;;15.88;11.80;;;;;;;;;;5064551;28;20120;-78
2020/12/18 12:26:15;;;;;;;17.02;8.85;;;;;;;;;;5076840;28;20311;-81
2020/12/18 12:28:41;;;;;;;17.85;12.02;;;;;;;;;;5079899;28;20028;-80
2020/12/18 12:31:07;;;;;;;20.77;11.70;;;;;;;;;;5069555;28;20017;-80
2020/12/18 12:33:32;;;;;;;21.85;14.27;;;;;;;;;;5085928;28;20039;-79
2020/12/18 12:35:59;;;;;;;28.20;16.55;;;;;;;;;;5080780;28;20090;-78
2020/12/18 12:38:25;;;;;;;18.48;11.90;;;;;;;;;;5079221;28;20052;-82
2020/12/18 12:43:10;;;;;;;19.83;11.93;;;;;;;;;;5050609;28;20425;-80
2020/12/18 12:45:36;;;;;;;16.83;11.75;;;;;;;;;;5048431;28;20030;-80
2020/12/18 12:48:02;;;;;;;16.70;10.88;;;;;;;;;;5052744;28;20036;-80
2020/12/18 12:50:28;;;;;;;13.25;10.70;;;;;;;;;;5055138;28;20033;-80
2020/12/18 12:52:54;;;;;;;10.25;7.50;;;;;;;;;;5048598;28;20026;-80
2020/12/18 12:55:20;;;;;;;11.32;8.02;;;;;;;;;;5045130;28;20113;-79
2020/12/18 12:57:45;;;;;;;10.32;7.25;;;;;;;;;;5050156;28;20036;-80
2020/12/18 13:00:11;;;;;;;11.05;7.38;;;;;;;;;;5046364;28;20033;-80
2020/12/18 13:02:37;;;;;;;9.32;6.47;;;;;;;;;;5045044;28;20040;-80
2020/12/18 13:05:03;;;;;;;10.18;7.25;;;;;;;;;;5048761;28;20106;-79
2020/12/18 13:07:30;;;;;;;14.30;8.20;;;;;;;;;;5045141;28;20025;-80
2020/12/18 13:09:56;;;;;;;11.68;8.50;;;;;;;;;;5048285;28;20041;-81
2020/12/18 13:14:43;;;;;;;14.65;9.82;;;;;;;;;;5091698;28;20921;-80
2020/12/18 13:17:09;;;;;;;12.55;8.75;;;;;;;;;;5096054;28;20024;-79
2020/12/18 13:19:35;;;;;;;12.63;8.10;;;;;;;;;;5086846;28;20034;-78
2020/12/18 13:22:01;;;;;;;11.52;7.72;;;;;;;;;;5078225;28;20078;-79
2020/12/18 13:24:27;;;;;;;8.20;6.00;;;;;;;;;;5076172;28;20039;-78
2020/12/18 13:26:55;;;;;;;8.95;5.80;;;;;;;;;;5080692;28;20016;-78
2020/12/18 13:29:21;;;;;;;12.57;7.25;;;;;;;;;;5078761;28;20092;-78
2020/12/18 13:31:47;;;;;;;10.45;6.55;;;;;;;;;;5077660;28;20091;-79
2020/12/18 13:34:13;;;;;;;12.00;5.28;;;;;;;;;;5079871;28;20682;-78
2020/12/18 13:36:42;;;;;;;13.40;7.78;;;;;;;;;;5080330;28;20025;-78
2020/12/18 13:39:08;;;;;;;16.40;9.57;;;;;;;;;;5078839;28;20069;-78
2020/12/18 13:41:34;;;;;;;10.63;6.40;;;;;;;;;;5081877;28;20044;-79
2020/12/18 13:44:00;;;;;;;8.18;5.75;;;;;;;;;;5074290;28;20112;-79
2020/12/18 13:46:26;;;;;;;10.90;6.20;;;;;;;;;;5098101;28;20035;-79
2020/12/18 13:48:52;;;;;;;12.77;7.50;;;;;;;;;;5082183;28;20024;-79
2020/12/18 13:51:18;;;;;;;11.20;6.82;;;;;;;;;;5089914;28;20064;-78
2020/12/18 13:53:44;;;;;;;14.13;7.13;;;;;;;;;;5094693;28;20477;-79
2020/12/18 13:56:10;;;;;;;12.40;6.57;;;;;;;;;;5083603;28;20127;-78
2020/12/18 13:58:36;;;;;;;11.60;6.10;;;;;;;;;;5096984;28;20107;-78
2020/12/18 14:01:01;;;;;;;10.68;6.65;;;;;;;;;;5095557;28;20017;-78
2020/12/18 14:03:27;;;;;;;16.63;7.07;;;;;;;;;;5087705;28;20086;-79
2020/12/18 14:05:53;;;;;;;7.72;5.43;;;;;;;;;;5071624;28;20032;-78
2020/12/18 14:08:19;;;;;;;15.32;8.35;;;;;;;;;;5090774;28;20024;-79
2020/12/18 14:10:45;;;;;;;14.52;8.10;;;;;;;;;;5103141;28;20073;-78
2020/12/18 14:13:11;;;;;;;15.15;8.30;;;;;;;;;;5092615;28;20032;-78
2020/12/18 14:15:37;;;;;;;15.80;8.07;;;;;;;;;;5084170;28;20546;-78
2020/12/18 14:18:03;;;;;;;21.77;11.68;;;;;;;;;;5090664;28;20494;-79
2020/12/18 14:20:29;;;;;;;13.20;8.80;;;;;;;;;;5097360;28;20497;-78
2020/12/18 14:22:55;;;;;;;11.57;7.68;;;;;;;;;;5098721;28;20383;-78
2020/12/18 14:25:21;;;;;;;15.35;8.55;;;;;;;;;;5083263;28;20529;-78
2020/12/18 14:27:47;;;;;;;15.57;9.32;;;;;;;;;;5075522;28;20082;-78
2020/12/18 14:30:13;;;;;;;11.05;8.50;;;;;;;;;;5083689;28;20024;-78
2020/12/18 14:32:39;;;;;;;13.10;8.50;;;;;;;;;;5071058;28;20529;-79
2020/12/18 14:35:06;;;;;;;17.00;9.63;;;;;;;;;;5056148;28;20044;-78
2020/12/18 14:37:32;;;;;;;19.70;9.32;;;;;;;;;;5068750;28;20507;-79
2020/12/18 14:39:59;;;;;;;14.10;8.32;;;;;;;;;;5064711;28;20040;-78
2020/12/18 14:42:25;;;;;;;12.18;7.78;;;;;;;;;;5069202;28;20017;-79
2020/12/18 14:47:10;;;;;;;18.98;10.25;;;;;;;;;;5107912;27;20437;-79
2020/12/18 14:49:36;;;;;;;17.48;9.43;;;;;;;;;;5102819;28;20081;-81
2020/12/18 14:52:02;;;;;;;13.15;8.32;;;;;;;;;;5101601;28;20395;-81
2020/12/18 14:54:28;;;;;;;13.20;7.72;;;;;;;;;;5098509;28;20070;-81
2020/12/18 14:56:54;;;;;;;13.13;8.23;;;;;;;;;;5090923;28;20471;-79
2020/12/18 14:59:20;;;;;;;13.93;6.82;;;;;;;;;;5091704;28;20032;-80
2020/12/18 15:01:48;;;;;;;14.77;7.88;;;;;;;;;;5099965;28;20440;-80
2020/12/18 15:06:33;;;;;;;13.38;7.78;;;;;;;;;;5108428;27;20939;-79
2020/12/18 15:09:01;;;;;;;14.35;7.00;;;;;;;;;;5108303;28;20028;-79
2020/12/18 15:11:27;;;;;;;11.10;6.72;;;;;;;;;;5097356;28;20025;-79
2020/12/18 15:13:53;;;;;;;11.07;6.25;;;;;;;;;;5083101;28;20027;-79
2020/12/18 15:16:19;;;;;;;10.95;6.05;;;;;;;;;;5087198;28;20028;-79
2020/12/18 15:18:45;;;;;;;10.05;6.15;;;;;;;;;;5087232;28;20032;-79
2020/12/18 15:21:11;;;;;;;7.80;5.10;;;;;;;;;;5085992;28;20035;-79
2020/12/18 15:23:37;;;;;;;10.32;6.13;;;;;;;;;;5083896;28;20102;-79
2020/12/18 15:26:03;;;;;;;11.80;6.03;;;;;;;;;;5088488;28;20043;-79
2020/12/18 15:28:29;;;;;;;15.70;7.43;;;;;;;;;;5090541;28;20028;-79
2020/12/18 15:30:55;;;;;;;19.45;11.23;;;;;;;;;;5092007;28;20028;-80
2020/12/18 15:33:21;;;;;;;12.70;7.20;;;;;;;;;;5100083;28;20028;-80
2020/12/18 15:35:47;;;;;;;22.40;9.65;;;;;;;;;;5101053;28;20114;-80
2020/12/18 15:38:13;;;;;;;16.13;10.00;;;;;;;;;;5100499;28;20043;-80
2020/12/18 15:42:57;;;;;;;15.25;8.70;;;;;;;;;;5112877;27;20392;-82
2020/12/18 15:45:23;;;;;;;10.55;7.15;;;;;;;;;;5081900;28;20033;-79
2020/12/18 15:47:49;;;;;;;11.40;7.07;;;;;;;;;;5084007;28;20078;-79
2020/12/18 15:50:15;;;;;;;10.80;7.10;;;;;;;;;;5088159;28;20549;-79
2020/12/18 15:52:40;;;;;;;13.23;8.05;;;;;;;;;;5089549;28;20135;-79
2020/12/18 15:55:06;;;;;;;12.40;6.80;;;;;;;;;;5093538;28;20032;-79
2020/12/18 15:57:32;;;;;;;11.40;5.55;;;;;;;;;;5087148;28;20032;-79
2020/12/18 15:59:58;;;;;;;14.10;7.45;;;;;;;;;;5083081;28;20031;-79
2020/12/18 16:02:24;;;;;;;16.85;8.18;;;;;;;;;;5085916;28;20047;-79
2020/12/18 16:04:50;;;;;;;14.80;9.27;;;;;;;;;;5090118;28;20028;-79
2020/12/18 16:07:17;;;;;;;20.05;11.88;;;;;;;;;;5080969;28;20028;-79
2020/12/18 16:09:42;;;;;;;17.42;8.88;;;;;;;;;;5081112;28;20456;-79
2020/12/18 16:12:09;;;;;;;19.60;12.05;;;;;;;;;;5082522;28;20048;-79
2020/12/18 16:14:35;;;;;;;22.90;12.48;;;;;;;;;;5085853;28;20201;-79
2020/12/18 16:17:02;;;;;;;14.82;9.73;;;;;;;;;;5086431;28;20082;-79
2020/12/18 16:19:30;;;;;;;15.45;8.55;;;;;;;;;;5089006;28;20393;-79
2020/12/18 16:21:56;;;;;;;13.93;8.57;;;;;;;;;;5084795;28;20119;-79
2020/12/18 16:24:22;;;;;;;20.15;13.65;;;;;;;;;;5085440;28;20471;-80
2020/12/18 16:26:48;;;;;;;28.83;18.35;;;;;;;;;;5083794;28;20020;-80
2020/12/18 16:29:14;;;;;;;30.02;19.63;;;;;;;;;;5080966;28;20013;-80
2020/12/18 16:31:40;;;;;;;38.88;24.63;;;;;;;;;;5085614;28;20566;-80
2020/12/18 16:34:06;;;;;;;50.10;24.33;;;;;;;;;;5084068;28;20017;-80
2020/12/18 16:36:32;;;;;;;33.72;18.42;;;;;;;;;;5079942;28;20094;-80
2020/12/18 16:38:58;;;;;;;46.15;22.08;;;;;;;;;;5086725;28;20028;-80
2020/12/18 16:41:32;;;;;;;47.28;24.00;;;;;;;;;;5078190;28;20024;-80
2020/12/18 16:43:58;;;;;;;51.53;28.75;;;;;;;;;;5081127;28;20035;-80
2020/12/18 16:46:27;;;;;;;37.25;22.35;;;;;;;;;;5083730;28;20487;-80
2020/12/18 16:48:54;;;;;;;66.40;42.80;;;;;;;;;;5083154;28;20048;-80
2020/12/18 16:51:21;;;;;;;51.03;34.95;;;;;;;;;;5081140;28;20480;-80
2020/12/18 16:53:47;;;;;;;35.90;23.80;;;;;;;;;;5075372;28;20028;-80
2020/12/18 16:56:18;;;;;;;38.25;27.25;;;;;;;;;;5062955;28;20029;-80
2020/12/18 16:58:45;;;;;;;33.70;23.63;;;;;;;;;;5067877;28;20031;-80
2020/12/18 17:01:13;;;;;;;30.73;21.70;;;;;;;;;;5067941;28;20033;-80
2020/12/18 17:03:42;;;;;;;33.95;20.42;;;;;;;;;;5065364;28;20028;-80
2020/12/18 17:06:08;;;;;;;34.08;19.00;;;;;;;;;;5063345;28;20468;-80
2020/12/18 17:08:34;;;;;;;30.58;18.98;;;;;;;;;;5064269;28;20047;-81
2020/12/18 17:11:01;;;;;;;31.13;19.83;;;;;;;;;;5068943;28;20488;-80
2020/12/18 17:13:29;;;;;;;28.98;20.80;;;;;;;;;;5069821;28;20029;-80
2020/12/18 17:15:55;;;;;;;24.45;15.70;;;;;;;;;;5069627;28;20195;-79
2020/12/18 17:18:21;;;;;;;20.95;13.75;;;;;;;;;;5070597;28;20068;-81
2020/12/18 17:20:47;;;;;;;24.02;15.88;;;;;;;;;;5071955;28;20493;-81
2020/12/18 17:23:13;;;;;;;27.38;18.00;;;;;;;;;;5062679;28;20029;-79
2020/12/18 17:25:39;;;;;;;41.05;25.45;;;;;;;;;;5064927;28;20028;-80
2020/12/18 17:28:05;;;;;;;35.40;23.38;;;;;;;;;;5067655;28;20031;-79
2020/12/18 17:30:32;;;;;;;33.08;21.88;;;;;;;;;;5067494;28;20103;-81
2020/12/18 17:32:58;;;;;;;35.65;22.00;;;;;;;;;;5069064;28;20026;-80
2020/12/18 17:35:24;;;;;;;24.58;16.20;;;;;;;;;;5072723;28;20030;-81
2020/12/18 17:37:50;;;;;;;31.05;21.35;;;;;;;;;;5075574;28;20029;-83
2020/12/18 17:40:17;;;;;;;34.95;23.45;;;;;;;;;;5076030;28;20021;-82
2020/12/18 17:42:42;;;;;;;50.67;29.65;;;;;;;;;;5071775;28;20644;-82
2020/12/18 17:45:09;;;;;;;50.72;34.05;;;;;;;;;;5075676;28;20036;-82
2020/12/18 17:47:35;;;;;;;46.95;31.20;;;;;;;;;;5072437;28;20032;-83
2020/12/18 17:50:01;;;;;;;52.05;31.13;;;;;;;;;;5070682;28;20476;-81
2020/12/18 17:52:30;;;;;;;44.58;28.27;;;;;;;;;;5073090;28;20393;-82
2020/12/18 17:54:56;;;;;;;50.92;30.23;;;;;;;;;;5071072;28;20032;-82
2020/12/18 17:57:22;;;;;;;47.55;30.98;;;;;;;;;;5071456;28;20021;-82
2020/12/18 17:59:48;;;;;;;54.92;33.05;;;;;;;;;;5068828;28;20071;-82
2020/12/18 18:02:14;;;;;;;56.83;35.00;;;;;;;;;;5087084;22;20048;-82
2020/12/18 18:04:43;;;;;;;52.30;31.42;;;;;;;;;;5064045;28;20036;-82
2020/12/18 18:09:28;;;;;;;40.17;25.52;;;;;;;;;;5115403;27;20397;-82
2020/12/18 18:11:58;;;;;;;31.88;19.88;;;;;;;;;;5100230;28;20070;-83
2020/12/18 18:14:24;;;;;;;26.38;17.10;;;;;;;;;;5107497;28;20040;-83
2020/12/18 18:16:50;;;;;;;34.75;19.80;;;;;;;;;;5100630;28;20015;-83
2020/12/18 18:19:15;;;;;;;27.20;16.55;;;;;;;;;;5108597;28;20060;-83
2020/12/18 18:21:45;;;;;;;23.38;14.50;;;;;;;;;;5101643;28;20411;-83
2020/12/18 18:24:11;;;;;;;20.30;12.98;;;;;;;;;;5095539;28;20085;-82
2020/12/18 18:26:37;;;;;;;20.20;14.95;;;;;;;;;;5095822;28;20019;-82
2020/12/18 18:29:03;;;;;;;16.00;11.25;;;;;;;;;;5097744;28;20028;-82
2020/12/18 18:31:29;;;;;;;23.23;15.15;;;;;;;;;;5101651;28;20203;-83
2020/12/18 18:33:55;;;;;;;48.47;30.23;;;;;;;;;;5095424;28;20040;-82
2020/12/18 18:36:21;;;;;;;52.47;33.95;;;;;;;;;;5102695;28;20099;-82
2020/12/18 18:41:04;;;;;;;36.33;22.23;;;;;;;;;;5081170;28;20432;-83
2020/12/18 18:43:30;;;;;;;30.23;20.38;;;;;;;;;;5059488;28;20032;-83
2020/12/18 18:48:17;;;;;;;45.80;25.83;;;;;;;;;;5080189;28;20345;-82
2020/12/18 18:50:43;;;;;;;40.35;25.17;;;;;;;;;;5079487;28;20027;-83
2020/12/18 18:53:09;;;;;;;42.80;25.00;;;;;;;;;;5075543;28;20033;-82
2020/12/18 18:55:35;;;;;;;40.22;20.52;;;;;;;;;;5050148;28;20036;-83
2020/12/18 18:58:01;;;;;;;29.13;18.25;;;;;;;;;;5056824;28;20025;-83
2020/12/18 19:00:27;;;;;;;27.75;17.92;;;;;;;;;;5061279;28;20036;-82
2020/12/18 19:02:53;;;;;;;31.95;19.85;;;;;;;;;;5056731;28;20024;-82
2020/12/18 19:05:19;;;;;;;35.25;19.10;;;;;;;;;;5057070;28;20071;-82
2020/12/18 19:07:45;;;;;;;39.10;20.20;;;;;;;;;;5060056;28;20063;-83
2020/12/18 19:10:11;;;;;;;35.33;20.23;;;;;;;;;;5060160;28;20028;-83
2020/12/18 19:12:37;;;;;;;33.53;19.38;;;;;;;;;;5078146;28;20029;-82
2020/12/18 19:17:22;;;;;;;31.60;17.73;;;;;;;;;;5068023;28;20351;-83
2020/12/18 19:19:48;;;;;;;28.70;17.38;;;;;;;;;;5055657;28;20032;-82
2020/12/18 19:22:14;;;;;;;26.88;15.77;;;;;;;;;;5043655;28;20437;-82
2020/12/18 19:24:40;;;;;;;29.50;16.05;;;;;;;;;;5044114;28;20022;-82
2020/12/18 19:27:12;;;;;;;27.83;17.15;;;;;;;;;;5028544;28;20039;-83
2020/12/18 19:29:38;;;;;;;29.58;16.92;;;;;;;;;;5039890;28;20033;-83
2020/12/18 19:32:08;;;;;;;31.55;16.80;;;;;;;;;;5038834;28;20106;-82
2020/12/18 19:34:34;;;;;;;39.78;16.98;;;;;;;;;;5021300;28;20025;-83
2020/12/18 19:37:00;;;;;;;26.38;15.90;;;;;;;;;;5039088;28;20475;-82
2020/12/18 19:39:26;;;;;;;39.55;19.90;;;;;;;;;;5022879;28;20057;-82
2020/12/18 19:42:21;;;;;;;52.53;23.70;;;;;;;;;;5030704;28;20112;-83
2020/12/18 19:47:05;;;;;;;29.73;16.67;;;;;;;;;;5084037;28;20414;-82
2020/12/18 19:49:31;;;;;;;39.22;18.13;;;;;;;;;;5085801;28;20020;-82
2020/12/18 19:51:57;;;;;;;45.15;19.48;;;;;;;;;;5064714;28;20030;-82
2020/12/18 19:54:23;;;;;;;36.35;17.70;;;;;;;;;;5076105;28;20025;-82
2020/12/18 19:56:52;;;;;;;31.70;14.45;;;;;;;;;;5079436;28;20377;-82
2020/12/18 19:59:18;;;;;;;38.50;12.55;;;;;;;;;;5075895;28;20029;-82
2020/12/18 20:01:44;;;;;;;27.55;12.75;;;;;;;;;;5081917;28;20046;-82
2020/12/18 20:04:10;;;;;;;24.85;14.98;;;;;;;;;;5070260;28;20033;-82
2020/12/18 20:06:36;;;;;;;54.80;24.08;;;;;;;;;;5072468;28;20066;-82
2020/12/18 20:09:03;;;;;;;56.75;24.73;;;;;;;;;;5073775;28;20055;-82
2020/12/18 20:11:29;;;;;;;59.00;25.17;;;;;;;;;;5072766;28;20036;-82
2020/12/18 20:13:56;;;;;;;50.65;24.55;;;;;;;;;;5067012;28;20040;-82
2020/12/18 20:16:22;;;;;;;56.17;19.48;;;;;;;;;;5061693;28;20027;-82
2020/12/18 20:18:52;;;;;;;29.83;16.60;;;;;;;;;;5079195;28;20025;-82
2020/12/18 20:21:19;;;;;;;43.33;19.25;;;;;;;;;;5078184;28;20025;-82
2020/12/18 20:23:45;;;;;;;31.90;17.27;;;;;;;;;;5077875;28;20084;-82
2020/12/18 20:26:13;;;;;;;28.23;17.42;;;;;;;;;;5076350;28;20464;-82
2020/12/18 20:28:39;;;;;;;32.72;17.83;;;;;;;;;;5083633;28;20448;-82
2020/12/18 20:31:05;;;;;;;25.80;15.73;;;;;;;;;;5075520;28;20021;-82
2020/12/18 20:33:32;;;;;;;28.42;16.80;;;;;;;;;;5072886;28;20031;-83
2020/12/18 20:35:58;;;;;;;25.40;15.10;;;;;;;;;;5072820;28;20037;-83
2020/12/18 20:38:24;;;;;;;44.33;22.90;;;;;;;;;;5076724;28;20101;-82
2020/12/18 20:40:50;;;;;;;53.22;27.02;;;;;;;;;;5071981;28;20035;-83
2020/12/18 20:43:16;;;;;;;58.17;28.50;;;;;;;;;;5074406;28;20077;-83
2020/12/18 20:45:42;;;;;;;49.33;27.38;;;;;;;;;;5082058;28;20036;-83
2020/12/18 20:48:08;;;;;;;55.42;27.42;;;;;;;;;;5077665;28;20040;-82